Time;durP1;ratioP1;P1;durP2;ratioP2;P2;SDS_P1;SDS_P2;PMS_P1;PMS_P2;Temp;Humidity;BMP_temperature;BMP_pressure;BME280_temperature;BME280_humidity;BME280_pressure;Samples;Min_cycle;Max_cycle;Signal;HPM_P1;HPM_P2
2022/10/14 00:00:47;;;;;;;2.50;2.30;;;17.00;82.30;17.30;96635.00;;;;5034211;28;20324;-87
2022/10/14 00:03:14;;;;;;;2.33;2.13;;;17.00;82.20;17.40;96637.00;;;;5034128;28;20765;-88
2022/10/14 00:05:42;;;;;;;2.97;1.77;;;17.00;82.30;17.40;96634.00;;;;5034457;28;20240;-86
2022/10/14 00:08:09;;;;;;;3.80;2.10;;;17.00;82.30;17.40;96631.00;;;;5034541;28;20279;-87
2022/10/14 00:10:40;;;;;;;2.10;2.00;;;17.00;82.10;17.40;96641.00;;;;5034355;28;20288;-87
2022/10/14 00:13:07;;;;;;;2.30;1.70;;;17.00;82.20;17.40;96645.00;;;;5034387;28;20217;-87
2022/10/14 00:15:41;;;;;;;1.43;1.30;;;17.10;82.20;17.40;96637.00;;;;5034229;28;20286;-86
2022/10/14 00:18:08;;;;;;;1.60;1.50;;;17.10;82.30;17.40;96634.00;;;;5030155;28;20674;-87
2022/10/14 00:20:36;;;;;;;2.43;1.50;;;17.10;82.10;17.40;96636.00;;;;5034103;28;20304;-87
2022/10/14 00:23:04;;;;;;;1.47;1.37;;;17.10;82.00;17.40;96636.00;;;;5034172;28;20300;-87
2022/10/14 00:25:31;;;;;;;1.20;1.10;;;17.10;81.90;17.40;96640.00;;;;5021354;28;20570;-87
2022/10/14 00:28:02;;;;;;;1.23;1.20;;;17.10;82.00;17.40;96643.00;;;;5033609;28;20320;-87
2022/10/14 00:30:29;;;;;;;1.37;1.20;;;17.10;82.00;17.40;96639.00;;;;5031413;28;20201;-87
2022/10/14 00:32:57;;;;;;;1.27;1.17;;;17.10;82.00;17.40;96635.00;;;;5034076;28;20197;-87
2022/10/14 00:35:25;;;;;;;1.20;1.10;;;17.10;82.10;17.40;96631.00;;;;5033725;28;20212;-86
2022/10/14 00:37:52;;;;;;;1.13;1.13;;;17.10;82.10;17.40;96646.00;;;;5033557;28;20247;-87
2022/10/14 00:40:19;;;;;;;1.00;1.00;;;17.10;82.10;17.40;96637.00;;;;5033429;28;20216;-87
2022/10/14 00:42:46;;;;;;;0.90;0.90;;;17.10;82.00;17.40;96632.00;;;;5033698;28;20709;-86
2022/10/14 00:45:16;;;;;;;1.40;1.30;;;17.10;82.00;17.40;96637.00;;;;5033568;28;20201;-87
2022/10/14 00:47:45;;;;;;;1.00;1.00;;;17.10;82.00;17.40;96631.00;;;;5033734;28;20198;-86
2022/10/14 00:50:16;;;;;;;2.67;1.30;;;17.10;82.10;17.50;96636.00;;;;5032669;28;20197;-86
2022/10/14 00:52:44;;;;;;;0.80;0.80;;;17.20;82.20;17.40;96635.00;;;;5035400;28;20195;-86
2022/10/14 00:55:17;;;;;;;1.20;1.10;;;17.10;82.00;17.50;96634.00;;;;5033451;28;20597;-87
2022/10/14 00:57:45;;;;;;;1.40;1.00;;;17.10;82.80;17.50;96633.00;;;;5027994;28;20197;-86
2022/10/14 01:00:18;;;;;;;1.00;1.00;;;17.20;82.00;17.50;96633.00;;;;5033698;28;20195;-87
2022/10/14 01:02:46;;;;;;;1.20;1.10;;;17.20;82.00;17.50;96630.00;;;;5024250;28;20248;-86
2022/10/14 01:05:19;;;;;;;1.13;0.93;;;17.10;82.00;17.50;96632.00;;;;5033276;28;20197;-86
2022/10/14 01:08:06;;;;;;;0.80;0.80;;;17.20;82.10;17.50;96631.00;;;;5033033;28;20611;-86
2022/10/14 01:10:43;;;;;;;1.17;0.90;;;17.20;82.20;17.50;96635.00;;;;5033329;28;20288;-85
2022/10/14 01:13:25;;;;;;;0.93;0.80;;;17.10;82.00;17.50;96638.00;;;;5023144;28;20248;-86
2022/10/14 01:16:04;;;;;;;0.93;0.80;;;17.20;82.10;17.50;96636.00;;;;5033108;28;20621;-86
2022/10/14 01:18:51;;;;;;;1.17;1.10;;;17.20;82.10;17.50;96634.00;;;;5032445;28;20272;-87
2022/10/14 01:21:28;;;;;;;1.93;1.00;;;17.20;82.10;17.50;96633.00;;;;5027670;28;20213;-87
2022/10/14 01:27:02;;;;;;;1.13;0.90;;;17.20;82.00;17.50;96636.00;;;;5070442;28;20204;-82
2022/10/14 01:30:10;;;;;;;0.90;0.90;;;17.20;82.20;17.50;96629.00;;;;5076098;28;20652;-81
2022/10/14 01:33:19;;;;;;;1.20;1.10;;;17.20;82.20;17.50;96627.00;;;;5062618;28;20220;-81
2022/10/14 01:36:08;;;;;;;1.00;0.80;;;17.20;82.00;17.50;96622.00;;;;5053113;28;20224;-81
2022/10/14 01:38:41;;;;;;;1.00;1.00;;;17.20;82.00;17.50;96630.00;;;;5054009;28;20228;-81
2022/10/14 01:41:22;;;;;;;1.07;1.00;;;17.20;81.90;17.60;96625.00;;;;5052282;28;20262;-81
2022/10/14 01:43:53;;;;;;;1.00;1.00;;;17.20;82.00;17.50;96628.00;;;;5055180;28;20882;-82
2022/10/14 01:46:26;;;;;;;0.97;0.90;;;17.20;81.90;17.50;96623.00;;;;5053688;28;20212;-81
2022/10/14 01:49:03;;;;;;;1.03;1.00;;;17.20;82.00;17.50;96624.00;;;;5055042;28;20228;-81
2022/10/14 01:51:38;;;;;;;0.87;0.87;;;17.20;81.90;17.50;96623.00;;;;5055706;28;20732;-81
2022/10/14 01:54:16;;;;;;;1.27;1.10;;;17.20;81.90;17.50;96617.00;;;;5055913;28;20219;-81
2022/10/14 01:56:47;;;;;;;0.90;0.90;;;17.20;82.00;17.50;96621.00;;;;5053956;28;20246;-81
2022/10/14 01:59:22;;;;;;;0.90;0.90;;;17.20;82.00;17.50;96613.00;;;;5054699;28;20260;-81
2022/10/14 02:01:56;;;;;;;1.00;0.87;;;17.20;81.90;17.50;96617.00;;;;5053004;28;20254;-82
2022/10/14 02:04:26;;;;;;;1.07;0.83;;;17.20;81.90;17.50;96617.00;;;;5054395;28;20637;-81
2022/10/14 02:07:08;;;;;;;0.83;0.80;;;17.20;81.90;17.50;96621.00;;;;5054134;28;20192;-81
2022/10/14 02:09:48;;;;;;;1.27;0.97;;;17.20;82.00;17.50;96612.00;;;;5043556;28;20254;-81
2022/10/14 02:12:47;;;;;;;1.73;1.00;;;17.20;81.90;17.50;96617.00;;;;5053609;28;20244;-82
2022/10/14 02:15:43;;;;;;;1.40;1.30;;;17.20;82.00;17.50;96616.00;;;;5048045;28;20228;-81
2022/10/14 02:18:25;;;;;;;1.00;1.00;;;17.20;81.90;17.50;96618.00;;;;5047293;28;20196;-81
2022/10/14 02:21:09;;;;;;;1.10;1.00;;;17.20;82.00;17.60;96616.00;;;;5054593;28;20291;-81
2022/10/14 02:23:49;;;;;;;1.23;1.07;;;17.20;81.90;17.50;96617.00;;;;5054281;28;20245;-81
2022/10/14 02:26:22;;;;;;;1.13;1.03;;;17.20;82.60;17.50;96616.00;;;;5054495;28;20238;-81
2022/10/14 02:29:03;;;;;;;1.07;0.90;;;17.20;81.90;17.50;96620.00;;;;5054774;28;20200;-81
2022/10/14 02:31:34;;;;;;;1.77;1.50;;;17.20;81.90;17.50;96621.00;;;;5054981;28;20207;-81
2022/10/14 02:34:17;;;;;;;1.23;1.13;;;17.20;81.80;17.50;96616.00;;;;5054832;28;20196;-81
2022/10/14 02:36:55;;;;;;;1.40;1.27;;;17.20;81.80;17.60;96618.00;;;;5053437;28;20255;-81
2022/10/14 02:39:37;;;;;;;1.20;1.00;;;17.20;81.80;17.50;96617.00;;;;5051020;28;20189;-81
2022/10/14 02:42:13;;;;;;;1.33;1.00;;;17.20;81.90;17.60;96623.00;;;;5052476;28;20227;-81
2022/10/14 02:44:53;;;;;;;1.00;1.00;;;17.20;81.90;17.60;96625.00;;;;5053731;28;20200;-81
2022/10/14 02:47:23;;;;;;;1.20;1.10;;;17.20;81.90;17.60;96626.00;;;;5052184;28;20216;-81
2022/10/14 02:50:09;;;;;;;1.40;1.30;;;17.20;81.70;17.60;96628.00;;;;5053177;28;20707;-82
2022/10/14 02:52:42;;;;;;;1.43;1.33;;;17.20;81.80;17.60;96629.00;;;;5055131;28;20720;-82
2022/10/14 02:55:15;;;;;;;3.00;1.57;;;17.20;81.70;17.50;96626.00;;;;5056829;28;20238;-81
2022/10/14 02:57:49;;;;;;;1.57;1.17;;;17.20;81.70;17.60;96634.00;;;;5056685;28;20240;-81
2022/10/14 03:00:18;;;;;;;1.50;1.40;;;17.20;81.70;17.50;96632.00;;;;5057063;28;20563;-80
2022/10/14 03:02:47;;;;;;;3.53;1.33;;;17.20;81.70;17.60;96629.00;;;;5056531;28;20595;-81
2022/10/14 03:05:18;;;;;;;1.23;1.20;;;17.20;81.70;17.60;96627.00;;;;5056032;28;20228;-81
2022/10/14 03:08:05;;;;;;;1.33;1.10;;;17.20;81.70;17.60;96629.00;;;;5054562;28;20608;-81
2022/10/14 03:10:34;;;;;;;1.30;1.20;;;17.20;81.70;17.60;96620.00;;;;5050555;28;20627;-81
2022/10/14 03:13:02;;;;;;;1.40;1.30;;;17.20;81.70;17.50;96624.00;;;;5057802;28;20670;-81
2022/10/14 03:15:34;;;;;;;1.27;1.17;;;17.20;81.70;17.60;96624.00;;;;5053478;28;20952;-81
2022/10/14 03:18:01;;;;;;;1.60;1.50;;;17.30;81.80;17.60;96619.00;;;;5046920;28;20288;-81
2022/10/14 03:20:31;;;;;;;1.67;1.57;;;17.20;81.70;17.60;96622.00;;;;5058454;28;20232;-81
2022/10/14 03:23:07;;;;;;;1.47;1.37;;;17.20;81.70;17.60;96620.00;;;;5057881;28;20632;-81
2022/10/14 03:25:34;;;;;;;1.40;1.30;;;17.20;81.70;17.60;96622.00;;;;5057781;28;20254;-81
2022/10/14 03:28:01;;;;;;;1.40;1.17;;;17.20;81.70;17.60;96625.00;;;;5057849;28;20200;-81
2022/10/14 03:30:31;;;;;;;1.63;1.30;;;17.20;81.70;17.60;96630.00;;;;5057821;28;20192;-81
2022/10/14 03:33:01;;;;;;;1.47;1.37;;;17.20;81.70;17.60;96623.00;;;;5058174;28;20815;-81
2022/10/14 03:35:33;;;;;;;1.00;1.00;;;17.20;81.70;17.60;96626.00;;;;5057222;28;20197;-81
2022/10/14 03:38:05;;;;;;;1.37;1.30;;;17.30;81.80;17.60;96621.00;;;;5050986;28;20640;-81
2022/10/14 03:40:38;;;;;;;1.50;1.40;;;17.30;81.80;17.60;96619.00;;;;5057728;28;20204;-81
2022/10/14 03:43:10;;;;;;;2.03;1.40;;;17.30;81.80;17.60;96615.00;;;;5053233;28;20221;-81
2022/10/14 03:45:45;;;;;;;1.50;1.40;;;17.30;81.70;17.60;96620.00;;;;5052212;28;20221;-81
2022/10/14 03:48:18;;;;;;;1.20;1.10;;;17.30;81.60;17.60;96625.00;;;;5047715;28;20232;-81
2022/10/14 03:50:49;;;;;;;1.60;1.50;;;17.30;81.70;17.60;96622.00;;;;5056283;28;20292;-81
2022/10/14 03:53:18;;;;;;;1.77;1.67;;;17.30;81.70;17.60;96623.00;;;;5055088;28;20315;-81
2022/10/14 03:55:47;;;;;;;1.40;1.30;;;17.30;82.40;17.60;96626.00;;;;5055931;28;20242;-81
2022/10/14 03:58:20;;;;;;;2.57;1.70;;;17.30;81.70;17.60;96625.00;;;;5056443;28;20291;-81
2022/10/14 04:00:47;;;;;;;1.40;1.30;;;17.30;81.80;17.70;96623.00;;;;5053618;28;20258;-81
2022/10/14 04:03:14;;;;;;;1.80;1.53;;;17.30;81.70;17.70;96619.00;;;;5055177;28;20296;-81
2022/10/14 04:05:45;;;;;;;1.50;1.40;;;17.30;81.70;17.70;96613.00;;;;5060431;28;20227;-81
2022/10/14 04:08:15;;;;;;;1.67;1.57;;;17.30;81.70;17.70;96614.00;;;;5056322;28;20227;-81
2022/10/14 04:10:45;;;;;;;1.60;1.50;;;17.30;81.70;17.70;96609.00;;;;5052931;28;20196;-81
2022/10/14 04:13:19;;;;;;;1.27;1.27;;;17.30;81.70;17.70;96614.00;;;;5056460;28;20225;-81
2022/10/14 04:15:53;;;;;;;1.70;1.60;;;17.30;81.70;17.70;96610.00;;;;5055605;28;20223;-81
2022/10/14 04:18:21;;;;;;;1.77;1.67;;;17.30;81.60;17.70;96602.00;;;;5055756;28;20250;-81
2022/10/14 04:20:51;;;;;;;1.90;1.70;;;17.30;81.60;17.70;96591.00;;;;5057308;28;20201;-81
2022/10/14 04:23:23;;;;;;;1.80;1.70;;;17.30;81.60;17.70;96589.00;;;;5056104;28;20235;-81
2022/10/14 04:25:50;;;;;;;2.33;1.57;;;17.40;81.70;17.70;96592.00;;;;5044821;28;20270;-81
2022/10/14 04:28:17;;;;;;;2.53;1.77;;;17.30;81.50;17.70;96591.00;;;;5057772;28;20614;-82
2022/10/14 04:30:44;;;;;;;1.77;1.67;;;17.30;81.50;17.70;96584.00;;;;5056709;28;20235;-82
2022/10/14 04:33:11;;;;;;;1.70;1.60;;;17.30;81.40;17.70;96586.00;;;;5055780;28;20243;-81
2022/10/14 04:35:38;;;;;;;1.87;1.77;;;17.40;81.40;17.60;96582.00;;;;5056610;28;20624;-81
2022/10/14 04:38:05;;;;;;;1.80;1.70;;;17.30;81.40;17.70;96583.00;;;;5055149;28;20709;-82
2022/10/14 04:40:34;;;;;;;2.47;2.20;;;17.30;81.40;17.60;96589.00;;;;5054333;28;20391;-82
2022/10/14 04:43:01;;;;;;;1.53;1.43;;;17.30;81.40;17.60;96586.00;;;;5056825;28;20228;-81
2022/10/14 04:45:35;;;;;;;1.70;1.60;;;17.30;81.30;17.60;96588.00;;;;5049799;28;20201;-81
2022/10/14 04:48:03;;;;;;;1.83;1.73;;;17.30;81.30;17.60;96579.00;;;;5051419;28;20231;-81
2022/10/14 04:50:42;;;;;;;2.30;2.10;;;17.30;81.10;17.60;96588.00;;;;5054800;28;20223;-82
2022/10/14 04:53:10;;;;;;;1.87;1.77;;;17.30;81.10;17.50;96587.00;;;;5054209;28;20469;-82
2022/10/14 04:55:39;;;;;;;1.80;1.70;;;17.30;81.10;17.50;96582.00;;;;5052912;28;20727;-82
2022/10/14 04:58:06;;;;;;;1.80;1.70;;;17.20;81.00;17.50;96585.00;;;;5051055;28;20201;-82
2022/10/14 05:00:33;;;;;;;2.17;1.70;;;17.20;81.00;17.50;96577.00;;;;5045932;28;20212;-83
2022/10/14 05:03:00;;;;;;;2.07;1.87;;;17.20;81.80;17.50;96578.00;;;;5054769;28;20228;-82
2022/10/14 05:05:28;;;;;;;2.33;2.07;;;17.20;81.20;17.50;96577.00;;;;5055109;28;20223;-82
2022/10/14 05:08:00;;;;;;;1.90;1.80;;;17.20;81.30;17.50;96572.00;;;;5055488;28;20600;-82
2022/10/14 05:10:34;;;;;;;2.00;1.90;;;17.20;81.30;17.50;96576.00;;;;5055949;28;20185;-82
2022/10/14 05:13:15;;;;;;;2.10;2.00;;;17.20;81.30;17.50;96575.00;;;;5054223;28;20220;-81
2022/10/14 05:15:45;;;;;;;2.00;1.80;;;17.20;81.60;17.50;96575.00;;;;5054142;28;20200;-82
2022/10/14 05:18:12;;;;;;;2.20;2.00;;;17.20;81.50;17.50;96570.00;;;;5054886;28;20586;-83
2022/10/14 05:20:39;;;;;;;2.90;1.87;;;17.20;81.50;17.50;96567.00;;;;5056265;28;20321;-83
2022/10/14 05:23:07;;;;;;;2.47;2.27;;;17.20;81.50;17.50;96567.00;;;;5058184;28;20259;-82
2022/10/14 05:25:34;;;;;;;4.67;2.20;;;17.20;81.50;17.60;96568.00;;;;5058021;28;20224;-82
2022/10/14 05:28:01;;;;;;;2.30;2.10;;;17.20;81.60;17.60;96560.00;;;;5055382;28;20707;-82
2022/10/14 05:30:29;;;;;;;2.30;2.10;;;17.20;81.50;17.60;96567.00;;;;5047400;28;20235;-82
2022/10/14 05:33:01;;;;;;;2.80;2.33;;;17.20;81.50;17.60;96565.00;;;;5050797;28;20221;-83
2022/10/14 05:35:32;;;;;;;2.90;2.23;;;17.20;81.40;17.60;96559.00;;;;5055081;28;20195;-83
2022/10/14 05:38:03;;;;;;;2.23;2.13;;;17.30;81.40;17.60;96554.00;;;;5054080;28;20235;-84
2022/10/14 05:40:32;;;;;;;2.67;2.47;;;17.20;81.40;17.60;96552.00;;;;5052136;28;20664;-83
2022/10/14 05:43:08;;;;;;;2.77;2.27;;;17.20;81.30;17.60;96557.00;;;;5051193;28;20225;-83
2022/10/14 05:45:37;;;;;;;2.57;2.33;;;17.20;81.30;17.60;96557.00;;;;5054292;28;20676;-82
2022/10/14 05:48:05;;;;;;;2.37;2.17;;;17.20;81.30;17.60;96564.00;;;;5055257;28;20247;-83
2022/10/14 05:50:35;;;;;;;2.23;2.03;;;17.20;81.30;17.60;96564.00;;;;5053721;28;20224;-84
2022/10/14 05:53:03;;;;;;;2.60;2.40;;;17.20;81.30;17.60;96562.00;;;;5050146;28;20285;-82
2022/10/14 05:55:34;;;;;;;3.00;2.80;;;17.20;81.20;17.60;96560.00;;;;5054548;28;20224;-83
2022/10/14 05:58:01;;;;;;;3.27;2.33;;;17.20;81.30;17.60;96556.00;;;;5055221;28;20677;-85
2022/10/14 06:00:29;;;;;;;2.23;2.10;;;17.20;81.30;17.60;96556.00;;;;5050609;28;20224;-82
2022/10/14 06:02:58;;;;;;;2.40;2.20;;;17.20;81.30;17.70;96563.00;;;;5047414;28;20303;-83
2022/10/14 06:05:26;;;;;;;2.80;2.50;;;17.20;81.40;17.70;96561.00;;;;5051797;28;20288;-83
2022/10/14 06:07:53;;;;;;;2.30;2.20;;;17.20;81.50;17.70;96565.00;;;;5053005;28;20255;-83
2022/10/14 06:10:20;;;;;;;2.70;2.50;;;17.20;81.50;17.70;96560.00;;;;5054663;28;20239;-83
2022/10/14 06:12:47;;;;;;;2.40;2.30;;;17.20;81.60;17.70;96553.00;;;;5052838;28;20269;-83
2022/10/14 06:15:15;;;;;;;2.80;2.60;;;17.20;81.60;17.70;96560.00;;;;5047923;28;20254;-82
2022/10/14 06:17:42;;;;;;;2.67;2.47;;;17.20;81.60;17.70;96552.00;;;;5053114;28;20560;-83
2022/10/14 06:20:14;;;;;;;2.43;2.23;;;17.20;81.70;17.70;96556.00;;;;5053927;28;20707;-83
2022/10/14 06:22:53;;;;;;;2.87;2.57;;;17.20;81.70;17.70;96550.00;;;;5053431;28;20228;-83
2022/10/14 06:25:22;;;;;;;2.80;2.20;;;17.20;81.70;17.70;96553.00;;;;5051797;28;20235;-84
2022/10/14 06:27:53;;;;;;;2.60;2.40;;;17.20;81.80;17.80;96557.00;;;;5056617;28;20235;-83
2022/10/14 06:30:28;;;;;;;4.57;2.90;;;17.20;81.80;17.70;96552.00;;;;5058937;28;20567;-84
2022/10/14 06:32:55;;;;;;;4.27;3.87;;;17.30;81.80;17.80;96557.00;;;;5057713;28;20216;-83
2022/10/14 06:38:08;;;;;;;3.67;3.37;;;17.30;81.80;17.80;96554.00;;;;5052325;28;20208;-83
2022/10/14 06:40:36;;;;;;;3.30;3.00;;;17.30;81.80;17.80;96557.00;;;;5056781;28;20251;-83
2022/10/14 06:43:07;;;;;;;3.00;2.63;;;17.30;81.90;17.80;96568.00;;;;5052830;28;20237;-83
2022/10/14 06:45:39;;;;;;;3.00;2.77;;;17.40;82.00;17.90;96563.00;;;;5054938;28;20671;-83
2022/10/14 06:48:07;;;;;;;2.83;2.63;;;17.40;81.90;17.90;96564.00;;;;5055387;28;20251;-83
2022/10/14 06:50:36;;;;;;;3.83;2.60;;;17.40;81.90;17.90;96563.00;;;;5056991;28;20204;-84
2022/10/14 06:53:04;;;;;;;3.63;2.27;;;17.40;82.00;17.90;96558.00;;;;5048614;28;20311;-83
2022/10/14 06:55:36;;;;;;;2.57;2.37;;;17.50;82.10;18.00;96567.00;;;;5036206;28;20275;-83
2022/10/14 06:58:03;;;;;;;3.13;2.50;;;17.50;82.10;18.00;96565.00;;;;5054715;28;20276;-83
2022/10/14 07:00:31;;;;;;;3.20;2.90;;;17.50;81.90;18.00;96567.00;;;;5060942;28;20216;-83
2022/10/14 07:02:59;;;;;;;2.60;2.40;;;17.50;81.90;18.00;96563.00;;;;5060432;28;20308;-83
2022/10/14 07:05:26;;;;;;;2.80;2.60;;;17.50;81.80;18.10;96559.00;;;;5062839;28;20188;-83
2022/10/14 07:07:57;;;;;;;3.90;3.03;;;17.60;81.90;18.10;96558.00;;;;5060295;28;20238;-83
2022/10/14 07:10:24;;;;;;;2.67;2.47;;;17.60;81.80;18.10;96558.00;;;;5062751;28;20227;-83
2022/10/14 07:12:55;;;;;;;3.23;2.93;;;17.60;81.80;18.10;96555.00;;;;5064534;28;20213;-83
2022/10/14 07:15:22;;;;;;;2.87;2.67;;;17.60;81.70;18.10;96557.00;;;;5065838;28;20204;-83
2022/10/14 07:17:49;;;;;;;3.23;2.93;;;17.70;81.70;18.10;96551.00;;;;5065287;28;20259;-82
2022/10/14 07:20:17;;;;;;;4.13;3.23;;;17.70;81.70;18.10;96549.00;;;;5064434;28;20192;-82
2022/10/14 07:25:16;;;;;;;3.30;3.03;;;17.70;81.70;18.20;96549.00;;;;5079327;28;20211;-80
2022/10/14 07:27:50;;;;;;;3.30;3.00;;;17.80;81.90;18.30;96554.00;;;;5069176;28;20220;-81
2022/10/14 07:30:24;;;;;;;2.97;2.77;;;17.80;82.00;18.30;96548.00;;;;5070231;28;20244;-81
2022/10/14 07:32:51;;;;;;;3.10;2.80;;;17.80;81.90;18.40;96548.00;;;;5058821;28;20222;-80
2022/10/14 07:35:21;;;;;;;3.17;2.97;;;17.90;82.00;18.40;96547.00;;;;5057729;28;20287;-80
2022/10/14 07:37:52;;;;;;;3.47;3.27;;;17.90;82.00;18.50;96545.00;;;;5063136;28;20199;-80
2022/10/14 07:40:21;;;;;;;4.10;3.33;;;17.90;82.00;18.50;96548.00;;;;5060591;28;20211;-80
2022/10/14 07:42:51;;;;;;;3.20;3.00;;;18.00;82.00;18.50;96550.00;;;;5062723;28;20750;-80
2022/10/14 07:45:22;;;;;;;3.90;3.60;;;18.00;82.00;18.50;96555.00;;;;5062192;28;20828;-80
2022/10/14 07:47:56;;;;;;;3.67;3.37;;;18.00;82.00;18.60;96554.00;;;;5062364;28;21636;-80
2022/10/14 07:50:23;;;;;;;2.93;2.60;;;18.10;82.00;18.60;96554.00;;;;5062104;28;20283;-80
2022/10/14 07:52:51;;;;;;;3.03;2.83;;;18.10;81.90;18.60;96560.00;;;;5065273;28;20248;-81
2022/10/14 07:55:24;;;;;;;2.93;2.67;;;18.10;81.90;18.70;96557.00;;;;5048797;28;20204;-80
2022/10/14 07:57:55;;;;;;;2.87;2.30;;;18.20;82.00;18.70;96550.00;;;;5050505;28;20246;-80
2022/10/14 08:00:34;;;;;;;2.70;2.50;;;18.20;81.70;18.80;96556.00;;;;5071128;28;20223;-83
2022/10/14 08:03:02;;;;;;;2.60;2.23;;;18.30;81.70;18.80;96556.00;;;;5067522;28;20246;-80
2022/10/14 08:05:36;;;;;;;2.70;2.50;;;18.30;81.60;18.90;96555.00;;;;5067732;28;20205;-80
2022/10/14 08:08:12;;;;;;;2.83;2.50;;;18.40;81.60;18.90;96557.00;;;;5067463;28;20219;-80
2022/10/14 08:10:45;;;;;;;3.30;2.50;;;18.40;81.30;18.90;96550.00;;;;5063604;28;20204;-80
2022/10/14 08:13:12;;;;;;;2.33;2.13;;;18.40;81.10;18.90;96549.00;;;;5063949;28;20742;-80
2022/10/14 08:15:46;;;;;;;3.33;2.47;;;18.50;81.20;19.00;96547.00;;;;5063775;28;20196;-80
2022/10/14 08:18:16;;;;;;;3.17;2.37;;;18.50;81.20;19.10;96558.00;;;;5063121;28;20224;-80
2022/10/14 08:20:49;;;;;;;2.83;2.43;;;18.60;81.30;19.10;96551.00;;;;5063378;28;20243;-82
2022/10/14 08:23:18;;;;;;;3.23;2.40;;;18.60;81.20;19.20;96551.00;;;;5064527;28;20227;-84
2022/10/14 08:25:49;;;;;;;3.60;2.50;;;18.60;81.30;19.30;96557.00;;;;5061940;28;20216;-80
2022/10/14 08:28:18;;;;;;;2.23;2.10;;;18.70;81.40;19.30;96547.00;;;;5067255;28;20199;-81
2022/10/14 08:30:49;;;;;;;2.27;2.10;;;18.70;81.30;19.40;96553.00;;;;5062792;28;20245;-80
2022/10/14 08:33:18;;;;;;;2.40;2.20;;;18.80;81.10;19.50;96553.00;;;;5068892;28;20307;-79
2022/10/14 08:35:49;;;;;;;2.10;1.90;;;18.80;81.10;19.50;96560.00;;;;5066612;28;20254;-80
2022/10/14 08:38:23;;;;;;;2.23;1.70;;;18.90;81.40;19.60;96553.00;;;;5065315;28;20256;-79
2022/10/14 08:41:07;;;;;;;2.17;2.07;;;18.90;81.20;19.60;96559.00;;;;5064767;28;20203;-80
2022/10/14 08:43:40;;;;;;;2.27;2.07;;;19.00;81.10;19.70;96551.00;;;;5064084;28;20281;-80
2022/10/14 08:46:24;;;;;;;2.43;1.90;;;19.00;80.90;19.80;96551.00;;;;5065062;28;20717;-80
2022/10/14 08:49:02;;;;;;;2.70;2.50;;;19.20;81.00;19.90;96550.00;;;;5062930;28;20196;-80
2022/10/14 08:51:34;;;;;;;2.13;1.93;;;19.20;81.10;20.00;96546.00;;;;5060959;28;20196;-79
2022/10/14 08:54:15;;;;;;;2.03;1.83;;;19.30;81.20;20.10;96543.00;;;;5065993;28;20189;-79
2022/10/14 08:56:44;;;;;;;2.03;1.93;;;19.30;80.80;20.20;96540.00;;;;5067299;28;20195;-80
2022/10/14 08:59:19;;;;;;;2.53;1.90;;;19.40;80.70;20.30;96540.00;;;;5064699;28;20258;-80
2022/10/14 09:01:53;;;;;;;2.73;1.77;;;19.50;80.50;20.40;96549.00;;;;5065489;28;20215;-80
2022/10/14 09:04:21;;;;;;;2.00;1.80;;;19.60;80.10;20.40;96545.00;;;;5067812;28;20211;-80
2022/10/14 09:06:55;;;;;;;1.83;1.73;;;19.70;80.00;20.50;96548.00;;;;5061028;28;20201;-80
2022/10/14 09:09:47;;;;;;;2.43;2.23;;;19.70;79.90;20.60;96549.00;;;;5063831;28;20286;-80
2022/10/14 09:12:26;;;;;;;2.50;2.30;;;19.80;80.10;20.60;96546.00;;;;5065243;28;20309;-80
2022/10/14 09:15:07;;;;;;;2.23;2.13;;;19.90;80.10;20.80;96544.00;;;;5064854;28;20219;-79
2022/10/14 09:17:51;;;;;;;2.17;1.30;;;20.00;79.50;20.80;96540.00;;;;5064105;28;20192;-79
2022/10/14 09:20:34;;;;;;;2.30;2.10;;;20.10;79.70;20.90;96546.00;;;;5063154;28;20185;-79
2022/10/14 09:23:16;;;;;;;1.50;1.40;;;20.20;79.10;21.10;96549.00;;;;5062196;28;20209;-79
2022/10/14 09:25:57;;;;;;;1.63;1.40;;;20.20;79.20;21.20;96542.00;;;;5062680;28;20897;-81
2022/10/14 09:28:37;;;;;;;2.30;1.60;;;20.40;79.00;21.30;96545.00;;;;5061623;28;20210;-80
2022/10/14 09:31:17;;;;;;;1.60;1.50;;;20.50;78.00;21.40;96541.00;;;;5061826;28;20212;-79
2022/10/14 09:33:45;;;;;;;3.37;1.70;;;20.60;76.80;21.50;96536.00;;;;5061026;28;20274;-80
2022/10/14 09:36:18;;;;;;;1.73;1.30;;;20.70;77.20;21.50;96532.00;;;;5063518;28;20226;-79
2022/10/14 09:38:51;;;;;;;1.13;1.00;;;20.80;77.30;21.70;96526.00;;;;5022581;28;20222;-80
2022/10/14 09:41:35;;;;;;;1.40;1.30;;;20.90;77.40;21.80;96535.00;;;;5003817;28;20224;-79
2022/10/14 09:44:25;;;;;;;1.83;1.10;;;21.00;77.40;22.00;96533.00;;;;5037054;28;20212;-80
2022/10/14 09:46:57;;;;;;;1.13;1.13;;;21.20;76.90;22.10;96528.00;;;;5018780;28;21012;-79
2022/10/14 09:49:38;;;;;;;1.40;1.30;;;21.40;76.10;22.20;96533.00;;;;5037316;28;20293;-79
2022/10/14 09:52:22;;;;;;;1.40;1.00;;;21.50;75.50;22.30;96532.00;;;;5037817;28;20680;-80
2022/10/14 09:54:57;;;;;;;0.93;0.93;;;21.60;75.50;22.40;96526.00;;;;5042046;28;20196;-79
2022/10/14 09:57:39;;;;;;;1.37;1.27;;;21.80;74.10;22.40;96533.00;;;;5039200;28;20188;-79
2022/10/14 10:00:27;;;;;;;1.13;1.00;;;21.90;74.80;22.50;96530.00;;;;5041360;28;20200;-79
2022/10/14 10:02:57;;;;;;;1.20;1.10;;;22.00;74.50;22.60;96525.00;;;;5040322;28;20294;-80
2022/10/14 10:05:30;;;;;;;1.00;1.00;;;22.00;74.80;22.60;96521.00;;;;5041616;28;20657;-80
2022/10/14 10:08:06;;;;;;;1.13;1.03;;;22.10;74.90;22.70;96519.00;;;;5038733;28;20659;-79
2022/10/14 10:10:37;;;;;;;1.17;1.10;;;22.20;75.30;22.80;96525.00;;;;5042577;28;20203;-79
2022/10/14 10:14:03;;;;;;;2.30;1.17;;;22.30;74.20;22.90;96526.00;;;;5039883;28;20224;-82
2022/10/14 10:16:47;;;;;;;0.80;0.80;;;22.40;74.00;23.10;96530.00;;;;5039168;28;20235;-82
2022/10/14 10:19:47;;;;;;;1.00;0.87;;;22.60;74.90;23.20;96522.00;;;;5037960;28;20275;-80
2022/10/14 10:22:35;;;;;;;0.97;0.90;;;22.70;72.00;23.30;96530.00;;;;5041203;28;20213;-85
2022/10/14 10:25:26;;;;;;;1.57;0.80;;;22.80;72.80;23.40;96530.00;;;;5042443;28;20228;-82
2022/10/14 10:28:00;;;;;;;1.10;0.90;;;22.90;72.20;23.40;96525.00;;;;5042665;28;20574;-81
2022/10/14 10:30:33;;;;;;;1.53;0.93;;;23.00;73.30;23.40;96522.00;;;;5041511;28;20211;-80
2022/10/14 10:33:26;;;;;;;0.90;0.73;;;23.00;70.90;23.50;96517.00;;;;5040650;28;20229;-81
2022/10/14 10:36:20;;;;;;;0.90;0.73;;;23.10;70.10;23.40;96518.00;;;;5040160;28;20209;-80
2022/10/14 10:39:29;;;;;;;0.70;0.70;;;23.10;69.30;23.40;96511.00;;;;5042315;28;20223;-81
2022/10/14 10:42:18;;;;;;;1.27;0.80;;;23.10;68.20;23.40;96490.00;;;;5041354;28;20690;-80
2022/10/14 10:45:16;;;;;;;0.60;0.60;;;23.00;67.70;23.30;96500.00;;;;5040812;28;21487;-82
2022/10/14 10:47:57;;;;;;;0.53;0.50;;;23.00;67.30;23.30;96495.00;;;;5038565;28;20194;-82
2022/10/14 10:50:48;;;;;;;1.97;0.63;;;22.90;69.00;23.30;96491.00;;;;5041479;28;20189;-82
2022/10/14 10:53:45;;;;;;;0.70;0.70;;;22.90;67.60;23.30;96486.00;;;;5040215;28;20217;-82
2022/10/14 10:56:37;;;;;;;1.33;0.70;;;22.80;68.50;23.20;96489.00;;;;5040472;28;20200;-82
2022/10/14 10:59:55;;;;;;;1.27;1.07;;;22.80;67.00;23.10;96492.00;;;;5040250;28;20203;-83
2022/10/14 11:03:03;;;;;;;0.60;0.60;;;22.70;66.90;23.00;96494.00;;;;5037004;28;20237;-81
2022/10/14 11:05:50;;;;;;;0.70;0.70;;;22.70;65.10;23.00;96488.00;;;;5037314;28;20303;-84
2022/10/14 11:14:54;;;;;;;0.53;0.50;;;22.50;65.50;22.80;96469.00;;;;5039927;28;20209;-83
2022/10/14 11:17:35;;;;;;;0.53;0.40;;;22.50;65.30;22.80;96458.00;;;;5042225;28;20232;-83
2022/10/14 11:20:25;;;;;;;0.40;0.40;;;22.40;65.50;22.70;96447.00;;;;5041933;28;20205;-80
2022/10/14 11:23:38;;;;;;;0.80;0.47;;;22.40;64.70;22.70;96450.00;;;;5043431;28;20209;-81
2022/10/14 11:26:26;;;;;;;0.60;0.60;;;22.30;65.10;22.70;96445.00;;;;5040107;28;20220;-82
2022/10/14 11:29:09;;;;;;;0.60;0.60;;;22.30;64.70;22.60;96434.00;;;;5039809;28;20197;-82
2022/10/14 11:31:55;;;;;;;0.77;0.50;;;22.20;63.70;22.50;96430.00;;;;5044631;28;21106;-80
2022/10/14 11:34:50;;;;;;;0.50;0.50;;;22.20;63.80;22.50;96426.00;;;;5041118;28;20201;-81
2022/10/14 11:37:32;;;;;;;0.37;0.33;;;22.10;63.00;22.50;96420.00;;;;5039965;28;20219;-81
2022/10/14 11:40:16;;;;;;;0.40;0.40;;;22.10;64.10;22.40;96414.00;;;;5044736;28;20193;-80
2022/10/14 11:43:07;;;;;;;0.60;0.50;;;22.00;64.40;22.40;96406.00;;;;5043034;28;20217;-80